Terminal Aerodrome Forecast
Issued by NWS Lake Charles, LA

Home | Current Version | Previous Version | Text Only | Print | Product List | Glossary On
Versions: 1 2 3 4 5 6 7 8 9 10 11 12 13 14 15 16 17 18 19 20 21 22
000
FTUS44 KLCH 171129
TAFAEX
TAF
KAEX 171129Z 1712/1812 VRB03KT P6SM SCT018
      TEMPO 1712/1714 5SM BR
     FM171500 22008KT P6SM SCT025
     FM171700 22010KT P6SM VCTS FEW020CB BKN040
     FM180100 16003KT P6SM FEW040 BKN250=

USA.gov is the U.S. government's official web portal to all federal, state and local government web resources and services.